createdAt,value
2023-04-12T00:01:05.898Z,99184.00
2023-04-12T00:03:34.477Z,99195.91
2023-04-12T00:06:03.896Z,99185.84
2023-04-12T00:08:33.930Z,99182.88
2023-04-12T00:11:02.877Z,99190.38
2023-04-12T00:13:30.642Z,99189.56
2023-04-12T00:15:57.667Z,99183.31
2023-04-12T00:18:25.793Z,99186.78
2023-04-12T00:20:53.526Z,99189.50
2023-04-12T00:23:21.003Z,99186.03
2023-04-12T00:25:48.420Z,99184.38
2023-04-12T00:28:18.979Z,99183.84
2023-04-12T00:30:46.205Z,99186.50
2023-04-12T00:33:13.407Z,99198.69
2023-04-12T00:35:40.532Z,99194.09
2023-04-12T00:38:10.868Z,99194.91
2023-04-12T00:40:45.018Z,99185.72
2023-04-12T00:43:19.095Z,99193.63
2023-04-12T00:45:47.332Z,99200.09
2023-04-12T00:48:16.229Z,99187.94
2023-04-12T00:50:44.979Z,99188.56
2023-04-12T00:53:14.066Z,99193.72
2023-04-12T00:55:44.190Z,99201.03
2023-04-12T00:58:11.206Z,99180.09
2023-04-12T01:00:38.236Z,99195.50
2023-04-12T01:03:05.682Z,99186.53
2023-04-12T01:05:40.815Z,99182.16
2023-04-12T01:08:08.120Z,99185.13
2023-04-12T01:10:35.427Z,99177.28
2023-04-12T01:13:12.085Z,99182.97
2023-04-12T01:15:43.939Z,99177.81
2023-04-12T01:18:19.883Z,99174.59
2023-04-12T01:21:01.915Z,99181.66
2023-04-12T01:24:01.809Z,99173.28
2023-04-12T01:26:45.081Z,99166.50
2023-04-12T01:29:15.913Z,99181.34
2023-04-12T01:31:54.552Z,99167.53
2023-04-12T01:34:25.433Z,99165.59
2023-04-12T01:36:54.702Z,99165.59
2023-04-12T01:39:22.036Z,99170.19
2023-04-12T01:41:49.951Z,99171.03
2023-04-12T01:44:18.015Z,99168.09
2023-04-12T01:46:47.714Z,99155.06
2023-04-12T01:49:16.234Z,99164.56
2023-04-12T01:52:09.945Z,99160.25
2023-04-12T01:54:44.913Z,99161.63
2023-04-12T01:57:13.519Z,99161.06
2023-04-12T01:59:43.621Z,99163.53
2023-04-12T02:02:12.235Z,99162.72
2023-04-12T02:04:41.801Z,99155.38
2023-04-12T02:07:09.622Z,99156.44
2023-04-12T02:09:38.496Z,99152.66
2023-04-12T02:12:06.737Z,99150.00
2023-04-12T02:14:34.110Z,99147.28
2023-04-12T02:17:04.556Z,99137.81
2023-04-12T02:19:32.798Z,99148.38
2023-04-12T02:22:01.157Z,99151.34
2023-04-12T02:24:29.579Z,99149.75
2023-04-12T02:26:59.206Z,99146.00
2023-04-12T02:29:27.552Z,99148.41
2023-04-12T02:31:54.618Z,99146.69
2023-04-12T02:34:23.940Z,99152.25
2023-04-12T02:36:58.851Z,99154.63
2023-04-12T02:39:26.073Z,99151.84
2023-04-12T02:41:53.037Z,99157.47
2023-04-12T02:44:20.477Z,99150.34
2023-04-12T02:47:01.598Z,99149.75
2023-04-12T02:49:30.932Z,99153.81
2023-04-12T02:51:58.528Z,99155.69
2023-04-12T02:54:32.305Z,99164.38
2023-04-12T02:56:59.628Z,99159.22
2023-04-12T02:59:40.390Z,99154.94
2023-04-12T03:02:24.211Z,99161.47
2023-04-12T03:04:55.019Z,99164.50
2023-04-12T03:07:30.612Z,99161.66
2023-04-12T03:09:57.548Z,99166.69
2023-04-12T03:12:25.728Z,99160.75
2023-04-12T03:15:05.047Z,99166.22
2023-04-12T03:17:32.230Z,99174.06
2023-04-12T03:20:10.312Z,99171.38
2023-04-12T03:22:40.974Z,99159.75
2023-04-12T03:25:12.841Z,99169.22
2023-04-12T03:27:45.767Z,99160.03
2023-04-12T03:30:15.963Z,99164.94
2023-04-12T03:32:44.297Z,99167.94
2023-04-12T03:35:11.748Z,99167.69
2023-04-12T03:37:43.016Z,99173.41
2023-04-12T03:40:12.023Z,99172.63
2023-04-12T03:42:43.075Z,99171.03
2023-04-12T03:45:12.623Z,99172.16
2023-04-12T03:47:43.192Z,99176.53
2023-04-12T03:50:12.636Z,99173.03
2023-04-12T03:52:45.211Z,99169.34
2023-04-12T03:55:13.730Z,99183.72
2023-04-12T03:57:42.180Z,99178.06
2023-04-12T04:00:10.290Z,99180.00
2023-04-12T04:02:47.526Z,99186.00
2023-04-12T04:05:17.001Z,99186.88
2023-04-12T04:07:45.816Z,99180.41
2023-04-12T04:10:14.305Z,99188.59
2023-04-12T04:12:42.982Z,99191.31
2023-04-12T04:15:12.351Z,99182.72
2023-04-12T04:17:40.555Z,99187.09
2023-04-12T04:20:09.219Z,99192.00
2023-04-12T04:22:38.479Z,99189.03
2023-04-12T04:25:06.444Z,99187.97
2023-04-12T04:27:38.665Z,99187.50
2023-04-12T04:30:08.114Z,99187.28
2023-04-12T04:32:38.844Z,99185.41
2023-04-12T04:35:06.648Z,99194.13
2023-04-12T04:37:45.418Z,99185.47
2023-04-12T04:40:15.431Z,99195.25
2023-04-12T04:42:43.349Z,99189.56
2023-04-12T04:45:14.782Z,99194.75
2023-04-12T04:47:44.270Z,99195.84
2023-04-12T04:50:11.399Z,99189.34
2023-04-12T04:52:39.553Z,99185.56
2023-04-12T04:55:11.809Z,99193.16
2023-04-12T04:57:41.867Z,99185.56
2023-04-12T05:00:13.775Z,99188.84
2023-04-12T05:02:44.277Z,99189.94
2023-04-12T05:05:16.159Z,99191.81
2023-04-12T05:07:44.923Z,99194.03
2023-04-12T05:10:12.254Z,99198.63
2023-04-12T05:12:41.932Z,99197.53
2023-04-12T05:15:12.212Z,99197.00
2023-04-12T05:17:41.121Z,99200.78
2023-04-12T05:20:10.922Z,99203.50
2023-04-12T05:22:39.282Z,99203.22
2023-04-12T05:25:06.905Z,99196.94
2023-04-12T05:27:39.319Z,99195.03
2023-04-12T05:30:09.217Z,99195.81
2023-04-12T05:32:36.361Z,99197.44
2023-04-12T05:35:03.728Z,99199.84
2023-04-12T05:37:31.376Z,99198.19
2023-04-12T05:39:58.374Z,99197.91
2023-04-12T05:42:25.548Z,99195.97
2023-04-12T05:44:52.648Z,99202.19
2023-04-12T05:47:21.819Z,99203.50
2023-04-12T05:49:49.372Z,99200.19
2023-04-12T05:52:18.229Z,99196.09
2023-04-12T05:54:45.415Z,99197.38
2023-04-12T05:57:17.852Z,99192.69
2023-04-12T05:59:47.326Z,99200.56
2023-04-12T06:02:14.455Z,99197.78
2023-04-12T06:04:50.153Z,99202.63
2023-04-12T06:07:21.493Z,99198.81
2023-04-12T06:09:50.053Z,99204.72
2023-04-12T06:12:18.000Z,99204.72
2023-04-12T06:14:45.122Z,99195.41
2023-04-12T06:17:12.356Z,99199.41
2023-04-12T06:19:40.405Z,99197.44
2023-04-12T06:22:07.312Z,99196.59
2023-04-12T06:24:34.668Z,99192.47
2023-04-12T06:27:01.966Z,99194.03
2023-04-12T06:29:29.113Z,99183.13
2023-04-12T06:31:56.321Z,99186.31
2023-04-12T06:34:23.355Z,99191.13
2023-04-12T06:36:51.717Z,99185.94
2023-04-12T06:39:18.655Z,99183.44
2023-04-12T06:41:47.545Z,99185.81
2023-04-12T06:44:19.338Z,99183.56
2023-04-12T06:46:46.760Z,99189.47
2023-04-12T06:49:13.910Z,99186.72
2023-04-12T06:51:41.095Z,99183.91
2023-04-12T06:54:08.061Z,99180.38
2023-04-12T06:56:37.326Z,99190.69
2023-04-12T06:59:04.340Z,99181.34
2023-04-12T07:01:31.589Z,99181.81
2023-04-12T07:03:58.945Z,99186.09
2023-04-12T07:06:26.455Z,99178.47
2023-04-12T07:08:53.484Z,99183.78
2023-04-12T07:11:24.662Z,99183.72
2023-04-12T07:13:52.015Z,99182.31
2023-04-12T07:16:19.133Z,99184.97
2023-04-12T07:22:08.007Z,99194.66
2023-04-12T07:24:40.207Z,99189.34
2023-04-12T07:27:07.457Z,99179.75
2023-04-12T07:29:34.588Z,99189.78
2023-04-12T07:32:01.613Z,99182.03
2023-04-12T07:34:28.875Z,99187.94
2023-04-12T07:36:56.384Z,99181.38
2023-04-12T07:39:26.410Z,99184.72
2023-04-12T07:41:53.577Z,99175.94
2023-04-12T07:44:20.615Z,99181.03
2023-04-12T07:46:47.703Z,99182.88
2023-04-12T07:49:18.394Z,99178.66
2023-04-12T07:51:45.430Z,99178.34
2023-04-12T07:54:13.348Z,99178.16
2023-04-12T07:56:40.540Z,99184.41
2023-04-12T07:59:07.710Z,99176.63
2023-04-12T08:01:35.074Z,99169.63
2023-04-12T08:04:02.747Z,99168.13
2023-04-12T08:06:34.481Z,99176.75
2023-04-12T08:09:01.496Z,99162.19
2023-04-12T08:11:28.847Z,99166.63
2023-04-12T08:13:56.056Z,99165.50
2023-04-12T08:16:23.361Z,99161.06
2023-04-12T08:18:51.596Z,99162.47
2023-04-12T08:21:22.281Z,99156.72
2023-04-12T08:23:53.128Z,99154.47
2023-04-12T08:26:22.840Z,99154.47
2023-04-12T08:28:49.872Z,99150.50
2023-04-12T08:31:17.920Z,99150.09
2023-04-12T08:33:48.229Z,99145.63
2023-04-12T08:36:15.847Z,99149.38
2023-04-12T08:38:45.975Z,99142.56
2023-04-12T08:41:14.522Z,99149.91
2023-04-12T08:43:46.431Z,99146.84
2023-04-12T08:46:18.536Z,99149.34
2023-04-12T08:48:48.693Z,99154.72
2023-04-12T08:51:20.205Z,99151.88
2023-04-12T08:53:48.617Z,99147.31
2023-04-12T08:56:16.620Z,99138.97
2023-04-12T08:58:50.343Z,99142.72
2023-04-12T09:01:18.805Z,99139.34
2023-04-12T09:03:47.062Z,99142.59
2023-04-12T09:06:14.373Z,99128.59
2023-04-12T09:08:55.198Z,99130.19
2023-04-12T09:11:26.935Z,99129.88
2023-04-12T09:13:58.914Z,99129.25
2023-04-12T09:16:36.293Z,99126.94
2023-04-12T09:19:04.197Z,99128.09
2023-04-12T09:21:32.655Z,99122.19
2023-04-12T09:24:14.924Z,99120.28
2023-04-12T09:26:42.500Z,99119.66
2023-04-12T09:29:25.678Z,99115.19
2023-04-12T09:32:05.123Z,99118.94
2023-04-12T09:34:33.420Z,99110.06
2023-04-12T09:37:00.435Z,99103.63
2023-04-12T09:39:34.749Z,99096.41
2023-04-12T09:42:25.072Z,99108.84
2023-04-12T09:44:58.698Z,99098.38
2023-04-12T09:47:41.834Z,99091.66
2023-04-12T09:50:09.834Z,99093.47
2023-04-12T09:52:38.602Z,99098.31
2023-04-12T09:55:10.672Z,99092.03
2023-04-12T09:57:57.204Z,99086.03
2023-04-12T10:00:26.938Z,99085.91
2023-04-12T10:02:56.762Z,99088.97
2023-04-12T10:05:26.928Z,99086.41
2023-04-12T10:07:55.271Z,99079.34
2023-04-12T10:10:23.112Z,99079.84
2023-04-12T10:12:50.838Z,99088.06
2023-04-12T10:15:21.050Z,99085.66
2023-04-12T10:17:55.788Z,99072.44
2023-04-12T10:20:25.553Z,99088.28
2023-04-12T10:22:53.772Z,99067.31
2023-04-12T10:25:25.970Z,99062.47
2023-04-12T10:27:53.672Z,99058.75
2023-04-12T10:30:33.846Z,99060.84
2023-04-12T10:33:06.976Z,99049.56
2023-04-12T10:36:10.969Z,99068.59
2023-04-12T10:38:48.395Z,99073.28
2023-04-12T10:41:20.274Z,99070.06
2023-04-12T10:43:51.350Z,99073.28
2023-04-12T10:46:45.276Z,99054.41
2023-04-12T10:49:14.153Z,99050.19
2023-04-12T10:52:01.896Z,99054.41
2023-04-12T10:54:29.754Z,99053.59
2023-04-12T10:56:57.655Z,99040.53
2023-04-12T10:59:57.568Z,99036.81
2023-04-12T11:02:24.712Z,99039.06
2023-04-12T11:05:23.754Z,99025.50
2023-04-12T11:08:07.359Z,99016.44
2023-04-12T11:11:05.747Z,99016.78
2023-04-12T11:13:39.089Z,99011.75
2023-04-12T11:16:06.765Z,99004.63
2023-04-12T11:18:35.833Z,98994.59
2023-04-12T11:21:04.785Z,98992.50
2023-04-12T11:23:32.855Z,98996.38
2023-04-12T11:25:59.895Z,99000.91
2023-04-12T11:28:30.002Z,98994.91
2023-04-12T11:30:59.010Z,98989.91
2023-04-12T11:33:37.259Z,98991.34
2023-04-12T11:36:13.451Z,98992.63
2023-04-12T11:38:41.291Z,98992.63
2023-04-12T11:41:09.195Z,98994.56
2023-04-12T11:43:38.870Z,99004.13
2023-04-12T11:46:06.694Z,98988.59
2023-04-12T11:48:34.062Z,98985.97
2023-04-12T11:51:11.035Z,98981.63
2023-04-12T11:53:39.246Z,98975.66
2023-04-12T11:56:07.002Z,98975.47
2023-04-12T11:58:33.992Z,98963.44
2023-04-12T12:01:01.564Z,98972.09
2023-04-12T12:03:29.040Z,98969.22
2023-04-12T12:05:56.747Z,98967.72
2023-04-12T12:08:24.780Z,98970.66
2023-04-12T12:11:03.969Z,98966.47
2023-04-12T12:13:54.029Z,98963.34
2023-04-12T12:16:29.119Z,98955.81
2023-04-12T12:18:57.387Z,98960.13
2023-04-12T12:21:26.424Z,98954.34
2023-04-12T12:23:53.541Z,98949.94
2023-04-12T12:26:30.641Z,98941.63
2023-04-12T12:29:00.567Z,98947.31
2023-04-12T12:31:28.693Z,98935.84
2023-04-12T12:33:59.036Z,98933.81
2023-04-12T12:36:32.394Z,98936.47
2023-04-12T12:39:11.592Z,98949.38
2023-04-12T12:41:40.114Z,98938.50
2023-04-12T12:44:08.316Z,98932.28
2023-04-12T12:49:06.202Z,98924.84
2023-04-12T12:51:33.336Z,98920.41
2023-04-12T12:54:01.301Z,98915.56
2023-04-12T12:56:28.302Z,98919.09
2023-04-12T12:58:55.327Z,98915.84
2023-04-12T13:01:22.391Z,98912.66
2023-04-12T13:03:49.629Z,98902.69
2023-04-12T13:06:16.668Z,98902.19
2023-04-12T13:08:43.551Z,98906.53
2023-04-12T13:11:10.952Z,98884.16
2023-04-12T13:13:37.875Z,98895.81
2023-04-12T13:16:05.473Z,98892.56
2023-04-12T13:18:32.624Z,98893.34
2023-04-12T13:20:59.656Z,98893.34
2023-04-12T13:23:26.696Z,98890.16
2023-04-12T13:25:53.870Z,98881.34
2023-04-12T13:28:21.591Z,98894.13
2023-04-12T13:30:48.922Z,98903.63
2023-04-12T13:33:20.050Z,98895.06
2023-04-12T13:35:47.248Z,98898.56
2023-04-12T13:38:14.187Z,98887.78
2023-04-12T13:40:41.199Z,98880.56
2023-04-12T13:43:08.885Z,98889.03
2023-04-12T13:45:36.195Z,98893.09
2023-04-12T13:48:03.538Z,98887.56
2023-04-12T13:50:31.237Z,98884.38
2023-04-12T13:52:58.158Z,98882.03
2023-04-12T13:55:25.528Z,98882.13
2023-04-12T13:57:52.651Z,98870.53
2023-04-12T14:00:20.233Z,98879.69
2023-04-12T14:02:47.307Z,98882.88
2023-04-12T14:05:15.132Z,98879.22
2023-04-12T14:07:42.358Z,98882.78
2023-04-12T14:10:10.035Z,98874.72
2023-04-12T14:12:37.099Z,98879.56
2023-04-12T14:15:04.998Z,98875.53
2023-04-12T14:17:33.006Z,98880.28
2023-04-12T14:20:00.649Z,98875.16
2023-04-12T14:22:28.207Z,98873.47
2023-04-12T14:24:55.609Z,98879.28
2023-04-12T14:27:22.707Z,98883.31
2023-04-12T14:29:49.700Z,98878.53
2023-04-12T14:32:16.825Z,98882.06
2023-04-12T14:34:44.313Z,98886.03
2023-04-12T14:37:11.264Z,98875.63
2023-04-12T14:39:38.354Z,98876.00
2023-04-12T14:42:06.240Z,98875.63
2023-04-12T14:44:33.228Z,98876.41
2023-04-12T14:47:00.331Z,98882.16
2023-04-12T14:49:29.471Z,98881.19
2023-04-12T14:51:57.948Z,98875.03
2023-04-12T14:54:24.907Z,98873.19
2023-04-12T14:56:55.842Z,98871.94
2023-04-12T14:59:23.565Z,98866.50
2023-04-12T15:01:52.798Z,98865.72
2023-04-12T15:04:20.251Z,98870.88
2023-04-12T15:06:47.452Z,98861.31
2023-04-12T15:09:15.857Z,98866.09
2023-04-12T15:11:46.685Z,98873.72
2023-04-12T15:14:20.612Z,98871.84
2023-04-12T15:16:50.947Z,98875.47
2023-04-12T15:19:22.949Z,98874.75
2023-04-12T15:21:52.378Z,98872.91
2023-04-12T15:24:19.897Z,98866.81
2023-04-12T15:26:48.723Z,98859.13
2023-04-12T15:29:16.711Z,98862.88
2023-04-12T15:31:44.138Z,98853.03
2023-04-12T15:34:11.878Z,98848.19
2023-04-12T15:36:43.794Z,98856.22
2023-04-12T15:39:12.654Z,98849.09
2023-04-12T15:41:41.884Z,98849.13
2023-04-12T15:44:10.104Z,98848.09
2023-04-12T15:46:37.090Z,98848.34
2023-04-12T15:49:04.052Z,98845.00
2023-04-12T15:51:32.324Z,98839.78
2023-04-12T15:54:00.049Z,98843.84
2023-04-12T15:56:29.756Z,98849.28
2023-04-12T15:58:57.907Z,98845.97
2023-04-12T16:01:26.583Z,98853.31
2023-04-12T16:03:53.974Z,98848.50
2023-04-12T16:06:21.166Z,98850.13
2023-04-12T16:08:51.897Z,98846.16
2023-04-12T16:11:20.485Z,98847.13
2023-04-12T16:13:49.186Z,98845.63
2023-04-12T16:16:18.366Z,98846.41
2023-04-12T16:18:46.331Z,98844.25
2023-04-12T16:21:16.593Z,98838.72
2023-04-12T16:23:44.522Z,98850.44
2023-04-12T16:26:14.475Z,98842.09
2023-04-12T16:28:44.481Z,98848.00
2023-04-12T16:31:11.865Z,98847.59
2023-04-12T16:33:38.955Z,98836.41
2023-04-12T16:36:06.313Z,98843.88
2023-04-12T16:38:33.324Z,98836.72
2023-04-12T16:41:00.337Z,98834.72
2023-04-12T16:43:27.564Z,98835.28
2023-04-12T16:45:54.554Z,98843.91
2023-04-12T16:48:22.921Z,98848.47
2023-04-12T16:50:50.526Z,98847.81
2023-04-12T16:53:17.661Z,98847.81
2023-04-12T16:55:49.011Z,98846.09
2023-04-12T16:58:16.361Z,98839.25
2023-04-12T17:00:43.366Z,98845.13
2023-04-12T17:03:14.166Z,98847.16
2023-04-12T17:05:41.536Z,98848.66
2023-04-12T17:08:09.862Z,98847.97
2023-04-12T17:10:37.528Z,98854.63
2023-04-12T17:13:06.692Z,98855.84
2023-04-12T17:15:34.462Z,98860.63
2023-04-12T17:18:12.476Z,98863.13
2023-04-12T17:20:39.701Z,98863.22
2023-04-12T17:23:10.427Z,98867.66
2023-04-12T17:25:38.726Z,98875.66
2023-04-12T17:28:09.195Z,98874.63
2023-04-12T17:30:36.856Z,98878.25
2023-04-12T17:33:04.346Z,98873.47
2023-04-12T17:35:31.875Z,98881.13
2023-04-12T17:37:59.121Z,98881.72
2023-04-12T17:40:26.233Z,98885.34
2023-04-12T17:42:53.526Z,98884.63
2023-04-12T17:45:22.043Z,98874.63
2023-04-12T17:47:49.636Z,98882.31
2023-04-12T17:50:17.003Z,98891.09
2023-04-12T17:52:44.553Z,98892.75
2023-04-12T17:55:12.956Z,98894.16
2023-04-12T17:57:44.434Z,98884.16
2023-04-12T18:00:12.187Z,98882.84
2023-04-12T18:02:46.013Z,98890.19
2023-04-12T18:05:13.562Z,98881.00
2023-04-12T18:07:41.316Z,98889.19
2023-04-12T18:10:09.922Z,98890.28
2023-04-12T18:12:38.792Z,98881.69
2023-04-12T18:15:08.404Z,98888.75
2023-04-12T18:17:35.436Z,98884.72
2023-04-12T18:20:03.122Z,98888.03
2023-04-12T18:22:30.596Z,98888.09
2023-04-12T18:24:57.756Z,98893.03
2023-04-12T18:27:24.954Z,98890.88
2023-04-12T18:29:51.911Z,98890.38
2023-04-12T18:32:19.024Z,98891.78
2023-04-12T18:34:46.300Z,98895.38
2023-04-12T18:37:13.284Z,98895.97
2023-04-12T18:39:40.709Z,98889.50
2023-04-12T18:42:07.694Z,98895.81
2023-04-12T18:44:34.676Z,98895.00
2023-04-12T18:47:01.827Z,98899.41
2023-04-12T18:49:29.605Z,98901.63
2023-04-12T18:51:58.814Z,98907.97
2023-04-12T18:54:27.734Z,98903.91
2023-04-12T18:56:55.118Z,98899.34
2023-04-12T18:59:22.312Z,98904.88
2023-04-12T19:01:49.345Z,98903.00
2023-04-12T19:04:16.907Z,98895.41
2023-04-12T19:06:45.295Z,98894.38
2023-04-12T19:09:12.397Z,98897.38
2023-04-12T19:11:40.045Z,98896.88
2023-04-12T19:14:08.335Z,98893.59
2023-04-12T19:16:36.296Z,98890.88
2023-04-12T19:19:03.320Z,98891.97
2023-04-12T19:21:31.169Z,98884.41
2023-04-12T19:23:58.503Z,98882.78
2023-04-12T19:26:26.197Z,98874.91
2023-04-12T19:28:55.768Z,98879.31
2023-04-12T19:31:23.924Z,98881.00
2023-04-12T19:33:51.033Z,98875.81
2023-04-12T19:36:18.370Z,98870.94
2023-04-12T19:38:47.942Z,98870.94
2023-04-12T19:41:18.157Z,98876.69
2023-04-12T19:43:46.365Z,98867.19
2023-04-12T19:46:13.780Z,98874.84
2023-04-12T19:48:41.065Z,98866.44
2023-04-12T19:51:08.145Z,98873.00
2023-04-12T19:53:35.081Z,98867.03
2023-04-12T19:56:04.387Z,98859.28
2023-04-12T19:58:32.240Z,98872.25
2023-04-12T20:01:02.296Z,98872.53
2023-04-12T20:03:30.252Z,98876.06
2023-04-12T20:05:59.128Z,98878.28
2023-04-12T20:08:28.555Z,98872.31
2023-04-12T20:10:56.462Z,98869.88
2023-04-12T20:13:23.827Z,98877.53
2023-04-12T20:15:51.246Z,98877.78
2023-04-12T20:18:18.268Z,98878.06
2023-04-12T20:20:45.409Z,98883.00
2023-04-12T20:23:13.866Z,98882.19
2023-04-12T20:25:41.841Z,98883.56
2023-04-12T20:28:09.555Z,98875.69
2023-04-12T20:30:37.023Z,98876.78
2023-04-12T20:33:04.641Z,98875.19
2023-04-12T20:35:32.211Z,98876.56
2023-04-12T20:38:00.753Z,98866.50
2023-04-12T20:40:30.072Z,98869.50
2023-04-12T20:43:00.130Z,98869.78
2023-04-12T20:45:27.350Z,98869.28
2023-04-12T20:47:54.304Z,98876.63
2023-04-12T20:50:23.079Z,98873.09
2023-04-12T20:52:52.412Z,98866.31
2023-04-12T20:55:19.641Z,98875.56
2023-04-12T20:57:46.808Z,98873.97
2023-04-12T21:00:18.310Z,98874.53
2023-04-12T21:02:46.533Z,98872.91
2023-04-12T21:05:17.309Z,98867.72
2023-04-12T21:07:47.033Z,98869.66
2023-04-12T21:10:15.051Z,98866.91
2023-04-12T21:12:45.180Z,98877.28
2023-04-12T21:15:12.443Z,98871.31
2023-04-12T21:17:40.847Z,98872.41
2023-04-12T21:20:14.585Z,98875.13
2023-04-12T21:22:43.311Z,98872.69
2023-04-12T21:25:16.750Z,98877.03
2023-04-12T21:27:46.141Z,98879.47
2023-04-12T21:30:14.107Z,98874.03
2023-04-12T21:32:43.064Z,98865.88
2023-04-12T21:35:11.360Z,98878.38
2023-04-12T21:37:39.560Z,98873.22
2023-04-12T21:40:12.563Z,98871.09
2023-04-12T21:42:40.892Z,98873.28
2023-04-12T21:45:11.731Z,98874.66
2023-04-12T21:47:42.445Z,98880.91
2023-04-12T21:50:10.912Z,98873.56
2023-04-12T21:52:38.948Z,98865.69
2023-04-12T21:55:06.663Z,98874.94
2023-04-12T21:57:34.705Z,98873.31
2023-04-12T22:00:05.752Z,98877.97
2023-04-12T22:02:39.149Z,98872.53
2023-04-12T22:05:07.756Z,98870.91
2023-04-12T22:07:35.400Z,98872.56
2023-04-12T22:10:02.695Z,98869.63
2023-04-12T22:12:30.386Z,98873.72
2023-04-12T22:14:57.750Z,98867.19
2023-04-12T22:17:25.103Z,98872.91
2023-04-12T22:19:55.397Z,98867.25
2023-04-12T22:22:25.871Z,98865.91
2023-04-12T22:24:54.010Z,98869.19
2023-04-12T22:27:21.354Z,98860.81
2023-04-12T22:29:50.689Z,98859.47
2023-04-12T22:32:17.751Z,98852.72
2023-04-12T22:34:45.019Z,98845.94
2023-04-12T22:37:13.723Z,98853.03
2023-04-12T22:39:40.748Z,98851.38
2023-04-12T22:42:07.919Z,98853.56
2023-04-12T22:44:38.488Z,98857.97
2023-04-12T22:47:09.136Z,98853.88
2023-04-12T22:49:45.072Z,98847.91
2023-04-12T22:52:12.285Z,98844.94
2023-04-12T22:54:40.332Z,98856.38
2023-04-12T22:57:07.457Z,98845.28
2023-04-12T22:59:35.021Z,98846.94
2023-04-12T23:02:02.477Z,98845.84
2023-04-12T23:04:29.680Z,98849.94
2023-04-12T23:06:56.624Z,98852.13
2023-04-12T23:09:24.194Z,98854.59
2023-04-12T23:11:51.807Z,98851.34
2023-04-12T23:14:18.812Z,98845.41
2023-04-12T23:16:46.334Z,98845.97
2023-04-12T23:19:14.709Z,98846.53
2023-04-12T23:21:42.332Z,98839.22
2023-04-12T23:24:12.222Z,98834.09
2023-04-12T23:26:39.579Z,98840.88
2023-04-12T23:29:06.658Z,98838.97
2023-04-12T23:31:33.886Z,98830.31
2023-04-12T23:34:06.251Z,98838.22
2023-04-12T23:36:33.934Z,98837.97
2023-04-12T23:39:01.544Z,98829.28
2023-04-12T23:41:31.712Z,98824.41
2023-04-12T23:43:59.544Z,98830.41
2023-04-12T23:46:27.233Z,98833.41
2023-04-12T23:48:54.349Z,98821.22
2023-04-12T23:51:22.233Z,98824.72
2023-04-12T23:53:49.231Z,98817.69
2023-04-12T23:56:16.588Z,98818.53
2023-04-12T23:58:43.559Z,98819.63
